createdAt,value
2022-10-24T00:00:30.284Z,87.50
2022-10-24T00:05:33.865Z,87.50
2022-10-24T00:10:42.459Z,87.60
2022-10-24T00:15:49.184Z,87.80
2022-10-24T00:20:52.757Z,87.70
2022-10-24T00:26:01.939Z,87.80
2022-10-24T00:31:06.998Z,88.10
2022-10-24T00:36:13.538Z,88.60
2022-10-24T00:41:25.726Z,88.60
2022-10-24T00:46:29.515Z,88.50
2022-10-24T00:51:35.562Z,88.40
2022-10-24T00:56:46.945Z,88.50
2022-10-24T01:01:50.672Z,88.50
2022-10-24T01:07:12.676Z,88.60
2022-10-24T01:12:29.554Z,88.60
2022-10-24T01:17:44.031Z,88.50
2022-10-24T01:23:09.536Z,88.50
2022-10-24T01:28:20.022Z,88.70
2022-10-24T01:33:32.141Z,88.70
2022-10-24T01:38:42.708Z,88.60
2022-10-24T01:43:54.643Z,88.70
2022-10-24T01:49:07.097Z,89.00
2022-10-24T01:54:13.560Z,88.80
2022-10-24T01:59:45.882Z,88.90
2022-10-24T02:04:59.745Z,88.80
2022-10-24T02:10:11.374Z,88.50
2022-10-24T02:15:23.485Z,88.40
2022-10-24T02:20:36.494Z,88.50
2022-10-24T02:31:00.313Z,88.50
2022-10-24T02:36:07.578Z,88.70
2022-10-24T02:41:19.838Z,88.80
2022-10-24T02:46:24.911Z,88.80
2022-10-24T02:51:35.668Z,88.90
2022-10-24T02:56:45.397Z,88.90
2022-10-24T03:01:49.089Z,88.70
2022-10-24T03:06:55.231Z,88.50
2022-10-24T03:11:58.733Z,88.50
2022-10-24T03:17:02.431Z,88.50
2022-10-24T03:22:07.430Z,88.40
2022-10-24T03:27:10.991Z,88.60
2022-10-24T03:32:15.240Z,88.60
2022-10-24T03:37:20.609Z,88.50
2022-10-24T03:42:24.305Z,88.30
2022-10-24T03:47:27.840Z,88.40
2022-10-24T03:52:33.668Z,88.80
2022-10-24T03:57:37.276Z,88.80
2022-10-24T04:02:43.821Z,88.80
2022-10-24T04:07:48.926Z,89.00
2022-10-24T04:12:52.517Z,88.80
2022-10-24T04:17:56.114Z,88.80
2022-10-24T04:23:03.754Z,88.90
2022-10-24T04:28:08.789Z,88.70
2022-10-24T04:33:12.637Z,89.00
2022-10-24T04:38:17.937Z,88.80
2022-10-24T04:43:23.238Z,88.70
2022-10-24T04:48:26.888Z,88.60
2022-10-24T04:53:32.263Z,88.60
2022-10-24T04:58:35.788Z,88.60
2022-10-24T05:03:39.260Z,88.70
2022-10-24T05:08:44.171Z,88.60
2022-10-24T05:13:47.615Z,88.70
2022-10-24T05:18:51.484Z,88.60
2022-10-24T05:23:56.441Z,88.70
2022-10-24T05:29:00.128Z,88.60
2022-10-24T05:34:03.985Z,88.60
2022-10-24T05:39:08.920Z,88.70
2022-10-24T05:44:13.876Z,88.70
2022-10-24T05:49:17.511Z,88.30
2022-10-24T05:54:22.511Z,87.30
2022-10-24T05:59:26.068Z,86.80
2022-10-24T06:04:29.505Z,85.90
2022-10-24T06:09:34.334Z,85.40
2022-10-24T06:14:38.300Z,85.60
2022-10-24T06:19:43.941Z,85.20
2022-10-24T06:24:48.890Z,85.20
2022-10-24T06:29:52.447Z,85.10
2022-10-24T06:34:55.921Z,85.20
2022-10-24T06:40:01.014Z,85.00
2022-10-24T06:45:06.115Z,84.90
2022-10-24T06:50:10.762Z,84.90
2022-10-24T06:55:15.727Z,84.90
2022-10-24T07:00:20.101Z,84.70
2022-10-24T07:05:23.640Z,84.70
2022-10-24T07:10:28.624Z,84.80
2022-10-24T07:15:32.258Z,84.60
2022-10-24T07:20:35.765Z,84.80
2022-10-24T07:25:41.746Z,84.90
2022-10-24T07:30:46.116Z,84.80
2022-10-24T07:35:49.632Z,84.90
2022-10-24T07:40:54.707Z,85.00
2022-10-24T07:45:59.287Z,84.70
2022-10-24T07:51:07.885Z,84.70
2022-10-24T07:56:16.183Z,84.90
2022-10-24T08:01:23.894Z,80.90
2022-10-24T08:06:32.151Z,79.30
2022-10-24T08:11:37.181Z,78.10
2022-10-24T08:16:43.552Z,77.10
2022-10-24T08:21:47.088Z,75.70
2022-10-24T08:26:52.039Z,75.10
2022-10-24T08:31:58.622Z,74.30
2022-10-24T08:37:02.751Z,73.70
2022-10-24T08:42:12.925Z,75.20
2022-10-24T08:47:30.355Z,75.00
2022-10-24T08:52:38.450Z,74.10
2022-10-24T08:57:52.140Z,73.30
2022-10-24T09:03:04.485Z,72.90
2022-10-24T09:08:24.416Z,72.50
2022-10-24T09:13:31.459Z,72.20
2022-10-24T09:18:40.668Z,71.90
2022-10-24T09:23:45.523Z,71.60
2022-10-24T09:28:50.431Z,71.50
2022-10-24T09:33:56.609Z,71.10
2022-10-24T09:39:34.645Z,71.00
2022-10-24T09:44:43.893Z,72.80
2022-10-24T09:49:48.333Z,73.00
2022-10-24T09:55:17.629Z,72.10
2022-10-24T10:00:30.639Z,72.10
2022-10-24T10:05:48.987Z,73.20
2022-10-24T10:11:09.605Z,72.20
2022-10-24T10:16:25.179Z,72.50
2022-10-24T10:21:28.945Z,72.20
2022-10-24T10:26:45.725Z,72.30
2022-10-24T10:31:59.707Z,72.00
2022-10-24T10:37:26.169Z,71.70
2022-10-24T10:42:39.822Z,71.70
2022-10-24T10:48:02.783Z,72.20
2022-10-24T10:53:28.699Z,72.60
2022-10-24T10:58:45.271Z,72.90
2022-10-24T11:03:59.098Z,73.20
2022-10-24T11:09:28.115Z,73.50
2022-10-24T11:14:36.337Z,73.80
2022-10-24T11:19:55.240Z,74.00
2022-10-24T11:25:07.360Z,74.10
2022-10-24T11:30:17.856Z,74.30
2022-10-24T11:35:33.186Z,74.40
2022-10-24T11:40:41.578Z,74.60
2022-10-24T11:45:54.765Z,74.80
2022-10-24T11:51:10.925Z,74.90
2022-10-24T11:56:23.614Z,75.00
2022-10-24T12:02:39.049Z,75.60
2022-10-24T12:43:28.816Z,75.90
2022-10-24T12:48:37.054Z,76.10
2022-10-24T12:54:05.693Z,76.10
2022-10-24T12:59:22.676Z,76.20
2022-10-24T13:04:55.434Z,76.30
2022-10-24T13:10:26.093Z,76.30
2022-10-24T13:15:45.233Z,76.40
2022-10-24T13:20:50.882Z,76.40
2022-10-24T13:25:57.334Z,76.50
2022-10-24T13:31:44.290Z,76.50
2022-10-24T13:36:53.480Z,76.50
2022-10-24T13:42:05.058Z,76.50
2022-10-24T13:47:20.476Z,76.60
2022-10-24T13:52:33.775Z,76.60
2022-10-24T13:57:54.200Z,76.60
2022-10-24T14:03:02.389Z,76.60
2022-10-24T14:08:09.680Z,76.60
2022-10-24T14:13:17.838Z,76.70
2022-10-24T14:18:24.040Z,76.70
2022-10-24T14:23:34.719Z,76.70
2022-10-24T14:28:45.946Z,76.90
2022-10-24T14:33:53.699Z,76.70
2022-10-24T14:39:01.122Z,76.70
2022-10-24T14:44:06.967Z,76.70
2022-10-24T14:49:33.859Z,76.80
2022-10-24T14:54:38.821Z,76.90
2022-10-24T14:59:47.907Z,76.90
2022-10-24T15:04:54.460Z,77.10
2022-10-24T15:10:02.324Z,77.00
2022-10-24T15:15:33.235Z,77.10
2022-10-24T15:20:42.089Z,77.20
2022-10-24T15:25:45.734Z,77.30
2022-10-24T15:30:49.328Z,77.30
2022-10-24T15:35:54.169Z,77.40
2022-10-24T15:40:58.490Z,77.50
2022-10-24T15:46:02.130Z,77.50
2022-10-24T15:51:07.756Z,77.60
2022-10-24T15:56:12.810Z,77.80
2022-10-24T16:01:31.557Z,77.70
2022-10-24T16:06:37.078Z,77.80
2022-10-24T16:11:40.702Z,77.90
2022-10-24T16:16:44.524Z,77.90
2022-10-24T16:21:49.572Z,78.00
2022-10-24T16:26:53.309Z,77.90
2022-10-24T16:31:56.755Z,78.00
2022-10-24T16:37:01.755Z,78.10
2022-10-24T16:42:07.311Z,78.20
2022-10-24T16:47:10.997Z,78.20
2022-10-24T16:52:16.165Z,78.20
2022-10-24T16:57:19.831Z,78.30
2022-10-24T17:02:23.637Z,79.10
2022-10-24T17:07:28.571Z,78.40
2022-10-24T17:12:32.373Z,78.40
2022-10-24T17:17:36.064Z,78.50
2022-10-24T17:22:45.270Z,78.60
2022-10-24T17:27:50.245Z,78.70
2022-10-24T17:32:54.362Z,78.70
2022-10-24T17:38:11.640Z,78.80
2022-10-24T17:43:22.904Z,78.90
2022-10-24T17:48:26.881Z,78.90
2022-10-24T17:53:31.731Z,78.90
2022-10-24T17:58:35.215Z,79.00
2022-10-24T18:03:38.872Z,79.00
2022-10-24T18:08:43.954Z,79.00
2022-10-24T18:13:47.484Z,79.00
2022-10-24T18:18:51.024Z,79.10
2022-10-24T18:23:57.124Z,79.00
2022-10-24T18:29:00.894Z,79.00
2022-10-24T18:34:06.343Z,79.00
2022-10-24T18:39:13.798Z,79.10
2022-10-24T18:44:28.403Z,79.10
2022-10-24T18:49:35.027Z,79.10
2022-10-24T18:54:51.190Z,79.20
2022-10-24T18:59:55.579Z,79.30
2022-10-24T19:05:20.176Z,79.30
2022-10-24T19:10:28.406Z,79.50
2022-10-24T19:15:32.637Z,79.40
2022-10-24T19:20:36.244Z,79.50
2022-10-24T19:25:41.155Z,79.50
2022-10-24T19:30:45.765Z,79.50
2022-10-24T19:35:49.303Z,79.50
2022-10-24T19:40:56.529Z,80.20
2022-10-24T19:46:19.275Z,83.90
2022-10-24T19:51:25.232Z,84.50
2022-10-24T19:56:31.397Z,85.10
2022-10-24T20:01:35.197Z,84.60
2022-10-24T20:06:39.788Z,84.60
2022-10-24T20:11:44.945Z,83.30
2022-10-24T20:16:48.448Z,84.30
2022-10-24T20:21:52.056Z,84.60
2022-10-24T20:26:57.242Z,85.80
2022-10-24T20:32:00.877Z,85.00
2022-10-24T20:37:04.680Z,86.00
2022-10-24T20:42:09.597Z,86.20
2022-10-24T20:47:13.194Z,86.20
2022-10-24T20:52:16.862Z,86.20
2022-10-24T20:57:22.051Z,85.90
2022-10-24T21:02:25.742Z,85.90
2022-10-24T21:07:29.602Z,85.70
2022-10-24T21:12:34.629Z,85.60
2022-10-24T21:17:38.119Z,85.80
2022-10-24T21:22:41.749Z,86.30
2022-10-24T21:27:46.929Z,86.30
2022-10-24T21:32:50.625Z,86.00
2022-10-24T21:37:54.952Z,85.80
2022-10-24T21:43:02.982Z,85.90
2022-10-24T21:48:07.215Z,85.50
2022-10-24T21:53:11.040Z,85.70
2022-10-24T21:58:16.126Z,85.60
2022-10-24T22:03:19.634Z,85.60
2022-10-24T22:08:24.478Z,85.50
2022-10-24T22:13:29.675Z,85.40
2022-10-24T22:18:34.757Z,85.30
2022-10-24T22:23:38.241Z,85.20
2022-10-24T22:28:43.164Z,85.20
2022-10-24T22:33:49.160Z,85.30
2022-10-24T22:38:55.473Z,85.10
2022-10-24T22:44:01.522Z,85.20
2022-10-24T22:49:15.583Z,85.10
2022-10-24T22:54:25.807Z,85.30
2022-10-24T22:59:32.343Z,85.70
2022-10-24T23:04:45.950Z,85.30
2022-10-24T23:09:49.416Z,85.30
2022-10-24T23:14:55.506Z,85.20
2022-10-24T23:20:00.546Z,85.30
2022-10-24T23:25:05.670Z,85.90
2022-10-24T23:30:19.937Z,85.90
2022-10-24T23:35:25.120Z,86.20
2022-10-24T23:40:36.244Z,86.00
2022-10-24T23:45:55.167Z,85.90
2022-10-24T23:51:07.959Z,86.20
2022-10-24T23:56:14.585Z,86.60
